createdAt,value
2019-01-12T17:08:35.452Z,98615.63
2019-01-12T17:12:39.398Z,98620.70
2019-01-12T17:17:14.808Z,98616.98
2019-01-12T17:21:16.004Z,98616.02
2019-01-12T17:25:18.708Z,98611.16
2019-01-12T17:29:19.827Z,98614.97
2019-01-12T17:33:20.916Z,98606.31
2019-01-12T17:37:21.895Z,98617.23
2019-01-12T17:41:22.912Z,98621.08
2019-01-12T17:45:25.708Z,98615.75
2019-01-12T17:49:27.843Z,98618.31
2019-01-12T17:53:29.056Z,98618.57
2019-01-12T17:57:30.178Z,98618.43
2019-01-12T18:01:31.229Z,98615.33
2019-01-12T18:05:32.362Z,98609.51
2019-01-12T18:09:33.952Z,98617.80
2019-01-12T18:13:39.197Z,98621.77
2019-01-12T18:17:41.706Z,98613.30
2019-01-12T18:21:42.833Z,98612.36
2019-01-12T18:25:43.888Z,98605.20
2019-01-12T18:29:44.964Z,98612.03
2019-01-12T18:33:45.965Z,98614.00
2019-01-12T18:37:47.019Z,98611.11
2019-01-12T18:41:48.037Z,98610.52
2019-01-12T18:45:49.094Z,98609.69
2019-01-12T18:49:50.166Z,98609.39
2019-01-12T18:53:51.433Z,98612.84
2019-01-12T18:57:52.397Z,98601.84
2019-01-12T19:01:53.632Z,98607.56
2019-01-12T19:05:54.676Z,98600.80
2019-01-12T19:09:55.745Z,98598.38
2019-01-12T19:14:01.630Z,98600.01
2019-01-12T19:18:02.716Z,98594.89
2019-01-12T19:22:03.839Z,98601.96
2019-01-12T19:26:05.462Z,98597.34
2019-01-12T19:30:08.951Z,98605.23
2019-01-12T19:34:10.075Z,98600.95
2019-01-12T19:38:11.241Z,98593.05
2019-01-12T19:42:12.314Z,98591.99
2019-01-12T19:46:13.330Z,98591.73
2019-01-12T19:50:17.683Z,98582.55
2019-01-12T19:54:18.728Z,98587.97
2019-01-12T19:58:19.811Z,98580.66
2019-01-12T20:02:20.974Z,98579.53
2019-01-12T20:06:25.025Z,98575.81
2019-01-12T20:10:26.231Z,98570.69
2019-01-12T20:14:27.439Z,98579.65
2019-01-12T20:18:28.739Z,98575.02
2019-01-12T20:22:32.470Z,98576.37
2019-01-12T20:26:34.290Z,98565.34
2019-01-12T20:30:50.178Z,98562.06
2019-01-12T20:34:57.349Z,98574.83
2019-01-12T20:39:36.415Z,98569.18
2019-01-12T20:44:35.507Z,98571.89
2019-01-12T20:48:55.750Z,98568.09
2019-01-12T20:53:08.540Z,98559.13
2019-01-12T20:57:38.194Z,98567.86
2019-01-12T21:02:18.244Z,98555.93
2019-01-12T21:06:43.709Z,98564.06
2019-01-12T21:11:03.026Z,98554.05
2019-01-12T21:15:18.730Z,98546.74
2019-01-12T21:19:21.417Z,98548.92
2019-01-12T21:23:22.493Z,98545.42
2019-01-12T21:27:23.936Z,98547.30
2019-01-12T21:31:25.218Z,98549.79
2019-01-12T21:35:26.268Z,98539.24
2019-01-12T21:39:27.360Z,98534.34
2019-01-12T21:43:28.349Z,98534.34
2019-01-12T21:47:29.491Z,98530.55
2019-01-12T21:51:30.510Z,98531.38
2019-01-12T21:55:31.618Z,98533.03
2019-01-12T21:59:32.662Z,98532.50
